createdAt,value
2019-01-20T00:00:47.652Z,23.33
2019-01-20T00:03:16.828Z,24.83
2019-01-20T00:05:45.928Z,26.17
2019-01-20T00:08:14.940Z,26.03
2019-01-20T00:10:44.283Z,27.43
2019-01-20T00:13:13.348Z,27.53
2019-01-20T00:15:43.042Z,24.50
2019-01-20T00:18:12.169Z,26.73
2019-01-20T00:20:41.260Z,26.17
2019-01-20T00:23:10.415Z,25.97
2019-01-20T00:25:39.422Z,22.40
2019-01-20T00:28:08.520Z,24.67
2019-01-20T00:30:37.584Z,23.50
2019-01-20T00:33:06.648Z,24.17
2019-01-20T00:35:35.731Z,24.67
2019-01-20T00:38:04.934Z,23.93
2019-01-20T00:40:33.969Z,24.47
2019-01-20T00:43:03.045Z,22.73
2019-01-20T00:45:32.176Z,23.00
2019-01-20T00:48:01.152Z,25.70
2019-01-20T00:50:30.275Z,27.13
2019-01-20T00:52:59.319Z,23.53
2019-01-20T00:55:28.339Z,23.73
2019-01-20T00:57:57.411Z,24.57
2019-01-20T01:00:27.825Z,26.27
2019-01-20T01:02:56.807Z,22.97
2019-01-20T01:05:26.122Z,24.83
2019-01-20T01:07:55.192Z,22.03
2019-01-20T01:10:24.259Z,23.40
2019-01-20T01:12:53.243Z,22.93
2019-01-20T01:15:22.313Z,22.80
2019-01-20T01:17:51.332Z,21.77
2019-01-20T01:20:20.443Z,22.70
2019-01-20T01:22:49.461Z,23.93
2019-01-20T01:25:18.663Z,18.67
2019-01-20T01:27:47.732Z,21.73
2019-01-20T01:30:17.870Z,22.17
2019-01-20T01:32:46.890Z,22.90
2019-01-20T01:35:15.914Z,19.87
2019-01-20T01:37:44.978Z,22.00
2019-01-20T01:40:14.834Z,22.90
2019-01-20T01:42:44.000Z,23.03
2019-01-20T01:45:17.348Z,24.57
2019-01-20T01:47:46.448Z,22.13
2019-01-20T01:50:15.935Z,19.40
2019-01-20T01:52:44.993Z,22.27
2019-01-20T01:55:14.019Z,23.17
2019-01-20T01:57:42.990Z,20.87
2019-01-20T02:00:16.365Z,23.40
2019-01-20T02:02:45.517Z,22.73
2019-01-20T02:05:14.767Z,21.27
2019-01-20T02:07:43.839Z,21.03
2019-01-20T02:10:14.347Z,21.90
2019-01-20T02:12:43.362Z,22.50
2019-01-20T02:15:14.345Z,21.90
2019-01-20T02:17:43.525Z,20.87
2019-01-20T02:20:13.414Z,22.37
2019-01-20T02:22:42.542Z,29.73
2019-01-20T02:25:11.711Z,22.87
2019-01-20T02:27:40.813Z,25.50
2019-01-20T02:30:12.169Z,20.80
2019-01-20T02:32:41.162Z,24.23
2019-01-20T02:35:10.219Z,23.50
2019-01-20T02:37:39.291Z,30.20
2019-01-20T02:40:08.819Z,23.97
2019-01-20T02:42:37.826Z,24.27
2019-01-20T02:45:07.343Z,25.77
2019-01-20T02:47:36.448Z,27.80
2019-01-20T02:50:05.877Z,26.37
2019-01-20T02:52:34.927Z,26.90
2019-01-20T02:55:04.411Z,22.70
2019-01-20T02:57:33.526Z,25.67
2019-01-20T03:00:02.548Z,25.97
2019-01-20T03:02:31.585Z,25.27
2019-01-20T03:05:00.660Z,23.53
2019-01-20T03:07:29.653Z,24.03
2019-01-20T03:09:58.655Z,24.80
2019-01-20T03:12:27.736Z,28.10
2019-01-20T03:14:56.707Z,25.10
2019-01-20T03:17:25.716Z,26.40
2019-01-20T03:19:54.698Z,29.00
2019-01-20T03:22:23.712Z,26.33
2019-01-20T03:24:52.696Z,22.63
2019-01-20T03:27:21.691Z,24.23
2019-01-20T03:29:50.675Z,24.60
2019-01-20T03:32:19.693Z,25.97
2019-01-20T03:34:48.734Z,24.63
2019-01-20T03:37:18.587Z,25.53
2019-01-20T03:39:47.558Z,22.50
2019-01-20T03:42:16.571Z,23.57
2019-01-20T03:44:45.550Z,27.17
2019-01-20T03:47:14.632Z,22.83
2019-01-20T03:49:43.614Z,26.10
2019-01-20T03:52:12.633Z,23.73
2019-01-20T03:54:41.669Z,20.70
2019-01-20T03:57:10.675Z,20.30
2019-01-20T03:59:39.656Z,25.97
2019-01-20T04:02:08.669Z,22.77
2019-01-20T04:04:37.652Z,23.23
2019-01-20T04:07:06.664Z,21.23
2019-01-20T04:09:35.665Z,24.10
2019-01-20T04:12:04.787Z,22.43
2019-01-20T04:14:33.820Z,23.30
2019-01-20T04:17:02.875Z,20.67
2019-01-20T04:19:31.893Z,25.10
2019-01-20T04:22:00.856Z,22.67
2019-01-20T04:24:29.866Z,22.57
2019-01-20T04:26:58.911Z,22.47
2019-01-20T04:29:27.922Z,23.87
2019-01-20T04:31:56.915Z,23.30
2019-01-20T04:34:25.990Z,23.03
2019-01-20T04:36:54.983Z,22.30
2019-01-20T04:39:24.014Z,23.43
2019-01-20T04:41:53.058Z,22.03
2019-01-20T04:44:22.096Z,23.03
2019-01-20T04:46:51.110Z,23.50
2019-01-20T04:49:20.139Z,23.03
2019-01-20T04:51:49.233Z,22.30
2019-01-20T04:54:18.321Z,29.07
2019-01-20T04:56:47.330Z,24.30
2019-01-20T04:59:16.314Z,22.70
2019-01-20T05:01:45.325Z,23.30
2019-01-20T05:04:14.301Z,23.13
2019-01-20T05:06:43.283Z,25.73
2019-01-20T05:09:12.267Z,22.10
2019-01-20T05:11:41.365Z,25.30
2019-01-20T05:14:10.355Z,20.27
2019-01-20T05:16:39.331Z,22.20
2019-01-20T05:19:08.334Z,24.67
2019-01-20T05:21:37.334Z,35.43
2019-01-20T05:24:14.208Z,47.23
2019-01-20T05:26:43.195Z,26.13
2019-01-20T05:29:13.186Z,24.33
2019-01-20T05:31:42.208Z,21.43
2019-01-20T05:34:11.305Z,21.23
2019-01-20T05:36:40.346Z,23.67
2019-01-20T05:39:09.375Z,22.50
2019-01-20T05:41:38.428Z,27.13
2019-01-20T05:44:07.524Z,24.13
2019-01-20T05:46:36.492Z,24.60
2019-01-20T05:49:05.497Z,22.60
2019-01-20T05:51:34.547Z,23.63
2019-01-20T05:54:03.719Z,25.30
2019-01-20T05:56:32.709Z,24.90
2019-01-20T05:59:01.838Z,24.13
2019-01-20T06:01:30.860Z,22.90
2019-01-20T06:03:59.851Z,24.97
2019-01-20T06:06:28.862Z,24.83
2019-01-20T06:08:58.936Z,20.90
2019-01-20T06:11:28.020Z,23.63
2019-01-20T06:13:57.028Z,21.60
2019-01-20T06:16:26.031Z,22.57
2019-01-20T06:18:55.064Z,24.20
2019-01-20T06:21:24.056Z,21.03
2019-01-20T06:23:53.147Z,22.60
2019-01-20T06:26:22.196Z,25.00
2019-01-20T06:28:51.222Z,24.60
2019-01-20T06:31:20.208Z,22.17
2019-01-20T06:33:49.251Z,24.07
2019-01-20T06:36:18.230Z,25.80
2019-01-20T06:38:47.295Z,22.30
2019-01-20T06:41:16.361Z,27.10
2019-01-20T06:43:45.341Z,23.30
2019-01-20T06:46:14.328Z,23.60
2019-01-20T06:48:43.340Z,26.53
2019-01-20T06:51:12.360Z,22.30
2019-01-20T06:53:41.490Z,25.23
2019-01-20T06:56:10.528Z,23.93
2019-01-20T06:58:39.579Z,20.97
2019-01-20T07:01:08.604Z,22.27
2019-01-20T07:03:37.713Z,22.53
2019-01-20T07:06:06.710Z,24.70
2019-01-20T07:08:35.719Z,26.23
2019-01-20T07:11:04.783Z,24.07
2019-01-20T07:13:33.808Z,24.93
2019-01-20T07:16:02.894Z,22.17
2019-01-20T07:18:31.976Z,23.43
2019-01-20T07:21:00.967Z,23.57
2019-01-20T07:23:29.966Z,26.83
2019-01-20T07:25:59.010Z,21.30
2019-01-20T07:28:27.987Z,27.00
2019-01-20T07:30:56.962Z,22.33
2019-01-20T07:33:26.031Z,21.37
2019-01-20T07:35:55.016Z,28.00
2019-01-20T07:38:24.003Z,24.83
2019-01-20T07:40:52.995Z,23.87
2019-01-20T07:43:21.986Z,24.33
2019-01-20T07:45:51.099Z,24.50
2019-01-20T07:48:20.146Z,25.17
2019-01-20T07:50:49.242Z,22.97
2019-01-20T07:53:18.250Z,25.03
2019-01-20T07:55:47.299Z,25.17
2019-01-20T07:58:16.294Z,23.00
2019-01-20T08:00:45.376Z,23.80
2019-01-20T08:03:14.342Z,23.40
2019-01-20T08:05:43.375Z,24.57
2019-01-20T08:08:12.420Z,21.10
2019-01-20T08:10:41.409Z,23.70
2019-01-20T08:13:10.394Z,23.03
2019-01-20T08:15:39.390Z,24.90
2019-01-20T08:18:08.400Z,25.47
2019-01-20T08:20:37.595Z,22.77
2019-01-20T08:23:06.709Z,24.77
2019-01-20T08:25:35.710Z,25.03
2019-01-20T08:28:04.706Z,24.03
2019-01-20T08:30:33.724Z,24.00
2019-01-20T08:33:02.712Z,25.53
2019-01-20T08:35:31.710Z,23.10
2019-01-20T08:38:00.686Z,25.03
2019-01-20T08:40:30.576Z,23.40
2019-01-20T08:42:59.690Z,21.47
2019-01-20T08:45:50.966Z,21.53
2019-01-20T08:48:20.735Z,22.47
2019-01-20T08:50:49.740Z,22.77
2019-01-20T08:53:18.769Z,22.97
2019-01-20T08:55:47.754Z,23.30
2019-01-20T08:58:16.722Z,24.03
2019-01-20T09:00:45.718Z,25.43
2019-01-20T09:03:14.706Z,24.07
2019-01-20T09:05:43.703Z,23.70
2019-01-20T09:08:12.700Z,26.77
2019-01-20T09:10:41.699Z,21.87
2019-01-20T09:13:11.196Z,23.73
2019-01-20T09:15:40.147Z,26.03
2019-01-20T09:18:09.138Z,27.80
2019-01-20T09:20:38.126Z,25.27
2019-01-20T09:23:07.100Z,23.70
2019-01-20T09:25:36.083Z,25.27
2019-01-20T09:28:05.235Z,23.30
2019-01-20T09:30:34.243Z,23.83
2019-01-20T09:33:03.219Z,23.47
2019-01-20T09:35:32.223Z,29.50
2019-01-20T09:38:01.197Z,26.23
2019-01-20T09:40:30.190Z,23.83
2019-01-20T09:42:59.161Z,26.63
2019-01-20T09:45:29.693Z,23.83
2019-01-20T09:47:58.707Z,27.57
2019-01-20T09:50:27.765Z,25.47
2019-01-20T09:52:56.741Z,27.07
2019-01-20T09:55:25.739Z,23.50
2019-01-20T09:57:54.756Z,26.70
2019-01-20T10:00:24.846Z,26.00
2019-01-20T10:02:53.983Z,24.43
2019-01-20T10:05:22.977Z,24.67
2019-01-20T10:07:52.039Z,25.77
2019-01-20T10:10:21.154Z,27.67
2019-01-20T10:12:50.151Z,28.67
2019-01-20T10:15:19.151Z,26.90
2019-01-20T10:17:48.155Z,24.47
2019-01-20T10:20:27.271Z,28.93
2019-01-20T10:22:56.278Z,36.37
2019-01-20T10:25:25.355Z,28.93
2019-01-20T10:27:54.330Z,29.73
2019-01-20T10:30:24.489Z,29.67
2019-01-20T10:32:53.576Z,30.27
2019-01-20T10:35:26.116Z,28.00
2019-01-20T10:37:56.025Z,26.80
2019-01-20T10:40:25.023Z,28.93
2019-01-20T10:42:54.223Z,27.63
2019-01-20T10:45:23.294Z,27.40
2019-01-20T10:47:52.345Z,27.40
2019-01-20T10:50:22.138Z,30.73
2019-01-20T10:52:51.259Z,26.80
2019-01-20T10:55:20.243Z,26.00
2019-01-20T10:57:49.265Z,31.80
2019-01-20T11:00:20.249Z,28.07
2019-01-20T11:02:49.271Z,28.40
2019-01-20T11:05:25.037Z,27.30
2019-01-20T11:07:48.986Z,27.07
2019-01-20T11:10:18.083Z,27.73
2019-01-20T11:12:47.161Z,25.07
2019-01-20T11:15:16.215Z,27.87
2019-01-20T11:17:45.206Z,27.33
2019-01-20T11:20:14.747Z,25.43
2019-01-20T11:22:43.735Z,26.73
2019-01-20T11:25:16.444Z,26.27
2019-01-20T11:27:45.448Z,27.83
2019-01-20T11:30:14.601Z,25.87
2019-01-20T11:32:43.622Z,24.80
2019-01-20T11:35:13.684Z,24.43
2019-01-20T11:37:42.692Z,26.70
2019-01-20T11:40:12.214Z,29.60
2019-01-20T11:42:41.208Z,23.63
2019-01-20T11:45:11.959Z,26.87
2019-01-20T11:47:41.950Z,23.10
2019-01-20T11:50:11.286Z,27.20
2019-01-20T11:52:40.283Z,26.83
2019-01-20T11:55:09.578Z,25.60
2019-01-20T11:57:38.627Z,26.17
2019-01-20T12:00:09.546Z,28.30
2019-01-20T12:02:38.620Z,25.43
2019-01-20T12:05:08.632Z,26.37
2019-01-20T12:07:37.700Z,23.27
2019-01-20T12:10:07.187Z,25.00
2019-01-20T12:12:36.808Z,25.47
2019-01-20T12:15:06.863Z,27.23
2019-01-20T12:17:36.099Z,25.67
2019-01-20T12:20:05.932Z,24.17
2019-01-20T12:22:34.937Z,25.77
2019-01-20T12:25:04.801Z,25.27
2019-01-20T12:27:33.807Z,27.13
2019-01-20T12:30:02.791Z,27.23
2019-01-20T12:32:31.787Z,28.27
2019-01-20T12:35:00.774Z,28.27
2019-01-20T12:37:29.774Z,26.17
2019-01-20T12:39:58.759Z,27.90
2019-01-20T12:42:27.760Z,26.73
2019-01-20T12:44:56.750Z,27.33
2019-01-20T12:47:25.820Z,28.77
2019-01-20T12:49:55.667Z,25.43
2019-01-20T12:52:26.288Z,26.67
2019-01-20T12:54:55.867Z,27.77
2019-01-20T12:57:26.163Z,29.40
2019-01-20T12:59:58.935Z,24.50
2019-01-20T13:02:28.753Z,28.07
2019-01-20T13:04:58.807Z,28.90
2019-01-20T13:07:27.955Z,26.97
2019-01-20T13:09:56.944Z,27.60
2019-01-20T13:12:25.916Z,27.80
2019-01-20T13:14:56.042Z,28.20
2019-01-20T13:17:25.739Z,32.93
2019-01-20T13:19:55.759Z,37.27
2019-01-20T13:22:25.622Z,36.43
2019-01-20T13:24:55.007Z,33.63
2019-01-20T13:27:24.623Z,41.60
2019-01-20T13:29:54.381Z,36.40
2019-01-20T13:32:24.071Z,33.30
2019-01-20T13:34:53.235Z,31.13
2019-01-20T13:37:22.220Z,33.97
2019-01-20T13:39:51.219Z,29.97
2019-01-20T13:42:21.128Z,29.83
2019-01-20T13:44:51.964Z,30.03
2019-01-20T13:47:22.477Z,29.63
2019-01-20T13:49:51.542Z,26.27
2019-01-20T13:52:20.525Z,27.37
2019-01-20T13:54:49.674Z,27.37
2019-01-20T13:57:18.679Z,29.07
2019-01-20T13:59:47.688Z,28.60
2019-01-20T14:02:16.710Z,27.80
2019-01-20T14:04:45.808Z,26.97
2019-01-20T14:07:14.815Z,30.07
2019-01-20T14:09:43.817Z,26.87
2019-01-20T14:12:12.903Z,27.20
2019-01-20T14:14:43.264Z,26.27
2019-01-20T14:17:12.325Z,29.20
2019-01-20T14:19:41.400Z,25.83
2019-01-20T14:22:10.477Z,25.40
2019-01-20T14:24:39.645Z,27.87
2019-01-20T14:27:08.605Z,27.67
2019-01-20T14:29:37.627Z,26.40
2019-01-20T14:32:06.630Z,26.77
2019-01-20T14:34:35.670Z,27.33
2019-01-20T14:37:04.644Z,28.60
2019-01-20T14:39:33.667Z,26.17
2019-01-20T14:42:02.678Z,26.77
2019-01-20T14:44:31.764Z,28.00
2019-01-20T14:47:03.335Z,26.50
2019-01-20T14:49:32.444Z,29.57
2019-01-20T14:52:01.571Z,28.60
2019-01-20T14:54:30.575Z,28.77
2019-01-20T14:56:59.670Z,25.33
2019-01-20T14:59:28.679Z,24.20
2019-01-20T15:01:57.799Z,27.23
2019-01-20T15:04:26.817Z,26.33
2019-01-20T15:06:55.896Z,25.00
2019-01-20T15:09:24.978Z,27.57
2019-01-20T15:11:55.740Z,26.37
2019-01-20T15:14:29.142Z,26.90
2019-01-20T15:16:58.238Z,30.43
2019-01-20T15:19:28.233Z,28.83
2019-01-20T15:21:57.272Z,29.40
2019-01-20T15:24:31.249Z,30.37
2019-01-20T15:26:57.097Z,28.47
2019-01-20T15:29:26.139Z,26.17
2019-01-20T15:31:55.124Z,33.07
2019-01-20T15:34:24.120Z,27.43
2019-01-20T15:36:53.220Z,26.33
2019-01-20T15:39:22.372Z,29.67
2019-01-20T15:41:51.336Z,29.43
2019-01-20T15:44:20.403Z,27.33
2019-01-20T15:46:49.456Z,24.67
2019-01-20T15:49:19.922Z,27.90
2019-01-20T15:51:49.097Z,28.30
2019-01-20T15:54:18.213Z,25.67
2019-01-20T15:56:47.351Z,21.90
2019-01-20T15:59:16.420Z,32.00
2019-01-20T16:01:45.520Z,25.07
2019-01-20T16:04:14.628Z,24.40
2019-01-20T16:06:43.850Z,23.33
2019-01-20T16:09:12.870Z,24.00
2019-01-20T16:11:42.325Z,23.80
2019-01-20T16:14:11.713Z,23.23
2019-01-20T16:16:40.850Z,25.83
2019-01-20T16:19:10.086Z,23.97
2019-01-20T16:21:39.149Z,23.90
2019-01-20T16:24:11.998Z,25.23
2019-01-20T16:26:45.578Z,24.40
2019-01-20T16:29:16.260Z,26.53
2019-01-20T16:31:47.141Z,26.90
2019-01-20T16:34:17.446Z,27.30
2019-01-20T16:36:46.552Z,24.80
2019-01-20T16:39:15.543Z,26.97
2019-01-20T16:41:47.437Z,25.03
2019-01-20T16:44:16.538Z,24.23
2019-01-20T16:46:45.640Z,29.57
2019-01-20T16:49:14.703Z,27.17
2019-01-20T16:51:43.807Z,24.47
2019-01-20T16:54:13.058Z,26.87
2019-01-20T16:56:42.498Z,27.90
2019-01-20T16:59:11.671Z,26.60
2019-01-20T17:01:40.857Z,22.53
2019-01-20T17:04:10.091Z,25.30
2019-01-20T17:06:39.170Z,27.13
2019-01-20T17:09:08.820Z,29.33
2019-01-20T17:11:37.923Z,26.33
2019-01-20T17:14:06.997Z,29.03
2019-01-20T17:16:36.095Z,26.03
2019-01-20T17:19:06.260Z,24.17
2019-01-20T17:21:35.361Z,24.37
2019-01-20T17:24:04.450Z,23.77
2019-01-20T17:26:34.393Z,23.20
2019-01-20T17:29:03.492Z,26.27
2019-01-20T17:31:32.576Z,23.27
2019-01-20T17:34:01.568Z,27.83
2019-01-20T17:36:30.669Z,25.33
2019-01-20T17:39:03.678Z,27.60
2019-01-20T17:41:32.722Z,25.70
2019-01-20T17:44:01.856Z,27.17
2019-01-20T17:46:30.922Z,27.83
2019-01-20T17:49:00.029Z,28.93
2019-01-20T17:51:29.171Z,26.83
2019-01-20T17:53:58.160Z,26.30
2019-01-20T17:56:27.178Z,28.20
2019-01-20T17:58:56.231Z,26.73
2019-01-20T18:01:25.386Z,27.33
2019-01-20T18:03:54.443Z,32.07
2019-01-20T18:06:23.536Z,27.77
2019-01-20T18:08:52.655Z,32.00
2019-01-20T18:11:21.743Z,28.37
2019-01-20T18:13:50.792Z,29.30
2019-01-20T18:16:20.089Z,28.13
2019-01-20T18:18:49.375Z,31.93
2019-01-20T18:21:18.579Z,27.90
2019-01-20T18:23:47.828Z,29.93
2019-01-20T18:26:16.984Z,29.87
2019-01-20T18:28:45.987Z,34.27
2019-01-20T18:31:15.082Z,38.40
2019-01-20T18:33:44.071Z,41.03
2019-01-20T18:36:13.144Z,40.20
2019-01-20T18:38:42.218Z,38.07
2019-01-20T18:41:11.234Z,38.40
2019-01-20T18:43:40.229Z,37.13
2019-01-20T18:46:09.243Z,38.20
2019-01-20T18:48:38.402Z,37.13
2019-01-20T18:51:07.637Z,38.80
2019-01-20T18:53:36.653Z,40.00
2019-01-20T18:56:05.763Z,37.17
2019-01-20T18:58:34.801Z,33.67
2019-01-20T19:01:03.875Z,32.47
2019-01-20T19:03:32.938Z,31.50
2019-01-20T19:06:01.996Z,32.13
2019-01-20T19:08:31.001Z,32.53
2019-01-20T19:10:59.995Z,32.63
2019-01-20T19:13:29.238Z,33.67
2019-01-20T19:15:58.283Z,34.53
2019-01-20T19:18:27.466Z,31.10
2019-01-20T19:20:56.558Z,30.17
2019-01-20T19:23:25.589Z,32.37
2019-01-20T19:25:54.922Z,31.50
2019-01-20T19:28:25.024Z,33.60
2019-01-20T19:30:54.202Z,30.90
2019-01-20T19:33:23.377Z,29.87
2019-01-20T19:35:52.951Z,30.83
2019-01-20T19:38:22.128Z,28.27
2019-01-20T19:40:51.340Z,29.67
2019-01-20T19:43:20.704Z,31.03
2019-01-20T19:45:49.983Z,31.73
2019-01-20T19:48:20.274Z,30.13
2019-01-20T19:50:49.760Z,29.83
2019-01-20T19:53:18.977Z,28.03
2019-01-20T19:55:48.348Z,24.23
2019-01-20T19:58:17.730Z,26.47
2019-01-20T20:00:47.250Z,26.80
2019-01-20T20:03:16.588Z,26.10
2019-01-20T20:05:45.730Z,30.33
2019-01-20T20:08:14.910Z,25.17
2019-01-20T20:10:44.060Z,29.37
2019-01-20T20:13:13.332Z,24.27
2019-01-20T20:15:42.641Z,28.23
2019-01-20T20:18:11.937Z,26.63
2019-01-20T20:20:41.021Z,31.07
2019-01-20T20:23:10.107Z,29.87
2019-01-20T20:25:39.365Z,28.63
2019-01-20T20:28:08.764Z,27.10
2019-01-20T20:30:38.113Z,30.10
2019-01-20T20:33:07.336Z,30.00
2019-01-20T20:35:36.562Z,24.80
2019-01-20T20:38:05.759Z,29.63
2019-01-20T20:40:34.859Z,31.00
2019-01-20T20:43:04.350Z,33.50
2019-01-20T20:45:33.525Z,32.23
2019-01-20T20:48:02.711Z,32.53
2019-01-20T20:50:31.882Z,33.50
2019-01-20T20:53:00.997Z,32.33
2019-01-20T20:55:30.134Z,28.33
2019-01-20T20:57:59.187Z,32.03
2019-01-20T21:00:29.902Z,29.67
2019-01-20T21:02:59.285Z,29.37
2019-01-20T21:05:28.359Z,29.80
2019-01-20T21:07:57.526Z,30.00
2019-01-20T21:10:26.724Z,30.77
2019-01-20T21:12:55.928Z,30.73
2019-01-20T21:15:25.066Z,29.63
2019-01-20T21:17:54.134Z,32.00
2019-01-20T21:20:23.326Z,29.43
2019-01-20T21:22:52.469Z,27.47
2019-01-20T21:25:21.661Z,31.93
2019-01-20T21:27:50.694Z,31.50
2019-01-20T21:30:20.848Z,26.30
2019-01-20T21:32:50.088Z,34.00
2019-01-20T21:35:19.379Z,30.20
2019-01-20T21:37:48.675Z,30.43
2019-01-20T21:40:17.938Z,26.23
2019-01-20T21:42:47.195Z,27.73
2019-01-20T21:45:16.636Z,26.73
2019-01-20T21:47:46.406Z,28.50
2019-01-20T21:50:16.817Z,32.07
2019-01-20T21:52:46.073Z,28.53
2019-01-20T21:55:15.439Z,31.03
2019-01-20T21:57:44.591Z,28.03
2019-01-20T22:00:14.791Z,28.97
2019-01-20T22:02:43.888Z,28.87
2019-01-20T22:05:12.893Z,28.37
2019-01-20T22:07:41.886Z,30.77
2019-01-20T22:10:12.185Z,27.57
2019-01-20T22:12:41.477Z,28.40
2019-01-20T22:15:10.776Z,29.93
2019-01-20T22:17:39.960Z,29.20
2019-01-20T22:20:10.603Z,30.50
2019-01-20T22:22:39.659Z,24.87
2019-01-20T22:25:09.347Z,30.40
2019-01-20T22:27:38.475Z,28.70
2019-01-20T22:30:09.501Z,25.80
2019-01-20T22:32:38.543Z,29.87
2019-01-20T22:35:08.287Z,25.33
2019-01-20T22:37:37.312Z,32.20
2019-01-20T22:40:06.522Z,29.57
2019-01-20T22:42:35.552Z,26.37
2019-01-20T22:45:05.365Z,27.20
2019-01-20T22:47:34.387Z,31.37
2019-01-20T22:50:03.430Z,27.93
2019-01-20T22:52:32.488Z,27.00
2019-01-20T22:55:01.572Z,28.17
2019-01-20T22:57:30.722Z,28.63
2019-01-20T22:59:59.732Z,28.90
2019-01-20T23:02:28.751Z,31.67
2019-01-20T23:04:57.779Z,37.57
2019-01-20T23:07:26.856Z,34.40
2019-01-20T23:09:55.848Z,29.63
2019-01-20T23:12:24.854Z,29.63
2019-01-20T23:14:53.879Z,32.27
2019-01-20T23:17:22.952Z,31.60
2019-01-20T23:19:51.967Z,35.43
2019-01-20T23:22:20.971Z,34.63
2019-01-20T23:24:56.103Z,35.50
2019-01-20T23:46:39.314Z,29.73
2019-01-20T23:49:08.322Z,32.17
2019-01-20T23:51:37.290Z,30.20
2019-01-20T23:54:06.294Z,33.83
2019-01-20T23:56:35.270Z,32.87
2019-01-20T23:59:04.270Z,27.87
